CFO weather

Colorado Air and Space Port
Denver, Colorado, United States

Public forecast

Using degrees Fahrenheit for public forecast. Weather courtesy of forecast.io.

Current aviation weather report (METAR) for Colorado Air and Space Port

Retrieved UTC (0 seconds ago):

Closest aviation forecast (TAF) to Colorado Air and Space Port

Closest forecast is Denver International Airport, 7.8 nm (14.4 km) NW. Retrieved 2019/10/16 18:39 UTC (2 hours ago):

TAF KDEN 161736Z 1618/1724 VRB05KT P6SM FEW150 BKN220 FM162000 09007KT P6SM FEW150 BKN220 FM170100 15007KT P6SM SCT220 FM170400 20010KT P6SM SCT220 FM171300 24007KT P6SM SCT200 FM171800 08008KT P6SM BKN200